sensor_id;sensor_type;location;lat;lon;timestamp;P1;durP1;ratioP1;P2;durP2;ratioP2
32976;SDS011;47687;50.842;4.450;2022-11-15T00:02:07;2.40;;;2.15;;
32976;SDS011;47687;50.842;4.450;2022-11-15T00:04:33;9.23;;;3.45;;
32976;SDS011;47687;50.842;4.450;2022-11-15T00:06:58;3.50;;;2.55;;
32976;SDS011;47687;50.842;4.450;2022-11-15T00:09:24;3.78;;;3.30;;
32976;SDS011;47687;50.842;4.450;2022-11-15T00:11:50;5.07;;;3.83;;
32976;SDS011;47687;50.842;4.450;2022-11-15T00:14:16;2.42;;;2.22;;
32976;SDS011;47687;50.842;4.450;2022-11-15T00:16:42;3.08;;;2.80;;
32976;SDS011;47687;50.842;4.450;2022-11-15T00:19:08;5.38;;;3.30;;
32976;SDS011;47687;50.842;4.450;2022-11-15T00:21:33;3.40;;;3.10;;
32976;SDS011;47687;50.842;4.450;2022-11-15T00:23:59;5.90;;;3.78;;
32976;SDS011;47687;50.842;4.450;2022-11-15T00:26:24;3.53;;;3.15;;
32976;SDS011;47687;50.842;4.450;2022-11-15T00:28:51;3.90;;;3.53;;
32976;SDS011;47687;50.842;4.450;2022-11-15T00:31:18;4.05;;;3.30;;
32976;SDS011;47687;50.842;4.450;2022-11-15T00:33:43;6.13;;;3.35;;
32976;SDS011;47687;50.842;4.450;2022-11-15T00:36:10;2.63;;;2.35;;
32976;SDS011;47687;50.842;4.450;2022-11-15T00:38:37;5.45;;;4.03;;
32976;SDS011;47687;50.842;4.450;2022-11-15T00:41:04;5.20;;;3.78;;
32976;SDS011;47687;50.842;4.450;2022-11-15T00:43:31;9.18;;;4.40;;
32976;SDS011;47687;50.842;4.450;2022-11-15T00:45:57;4.28;;;3.50;;
32976;SDS011;47687;50.842;4.450;2022-11-15T00:48:23;3.38;;;3.05;;
32976;SDS011;47687;50.842;4.450;2022-11-15T00:50:49;8.73;;;2.72;;
32976;SDS011;47687;50.842;4.450;2022-11-15T00:53:15;4.80;;;2.88;;
32976;SDS011;47687;50.842;4.450;2022-11-15T00:55:42;4.00;;;3.25;;
32976;SDS011;47687;50.842;4.450;2022-11-15T00:58:08;4.85;;;4.35;;
32976;SDS011;47687;50.842;4.450;2022-11-15T01:00:33;8.80;;;4.22;;
32976;SDS011;47687;50.842;4.450;2022-11-15T01:02:59;5.50;;;4.90;;
32976;SDS011;47687;50.842;4.450;2022-11-15T01:05:25;5.13;;;2.50;;
32976;SDS011;47687;50.842;4.450;2022-11-15T01:07:54;3.28;;;2.97;;
32976;SDS011;47687;50.842;4.450;2022-11-15T01:10:21;4.82;;;4.38;;
32976;SDS011;47687;50.842;4.450;2022-11-15T01:12:47;7.10;;;4.47;;
32976;SDS011;47687;50.842;4.450;2022-11-15T01:15:13;6.38;;;4.25;;
32976;SDS011;47687;50.842;4.450;2022-11-15T01:17:39;4.70;;;3.65;;
32976;SDS011;47687;50.842;4.450;2022-11-15T01:20:05;2.85;;;2.55;;
32976;SDS011;47687;50.842;4.450;2022-11-15T01:22:31;4.68;;;3.35;;
32976;SDS011;47687;50.842;4.450;2022-11-15T01:24:57;4.20;;;3.78;;
32976;SDS011;47687;50.842;4.450;2022-11-15T01:27:23;6.15;;;4.53;;
32976;SDS011;47687;50.842;4.450;2022-11-15T01:29:48;4.97;;;4.30;;
32976;SDS011;47687;50.842;4.450;2022-11-15T01:32:14;3.92;;;3.15;;
32976;SDS011;47687;50.842;4.450;2022-11-15T01:34:39;5.10;;;4.60;;
32976;SDS011;47687;50.842;4.450;2022-11-15T01:37:05;5.20;;;3.85;;
32976;SDS011;47687;50.842;4.450;2022-11-15T01:39:30;6.15;;;4.63;;
32976;SDS011;47687;50.842;4.450;2022-11-15T01:41:56;5.82;;;3.75;;
32976;SDS011;47687;50.842;4.450;2022-11-15T01:46:56;4.07;;;3.78;;
32976;SDS011;47687;50.842;4.450;2022-11-15T01:49:23;5.03;;;3.88;;
32976;SDS011;47687;50.842;4.450;2022-11-15T01:51:50;4.40;;;4.00;;
32976;SDS011;47687;50.842;4.450;2022-11-15T01:54:18;3.92;;;3.15;;
32976;SDS011;47687;50.842;4.450;2022-11-15T01:56:47;5.43;;;4.60;;
32976;SDS011;47687;50.842;4.450;2022-11-15T01:59:19;3.63;;;3.28;;
32976;SDS011;47687;50.842;4.450;2022-11-15T02:01:45;2.55;;;2.35;;
32976;SDS011;47687;50.842;4.450;2022-11-15T02:04:12;7.80;;;3.38;;
32976;SDS011;47687;50.842;4.450;2022-11-15T02:06:43;4.88;;;3.03;;
32976;SDS011;47687;50.842;4.450;2022-11-15T02:09:11;18.48;;;3.53;;
32976;SDS011;47687;50.842;4.450;2022-11-15T02:11:37;3.30;;;3.03;;
32976;SDS011;47687;50.842;4.450;2022-11-15T02:14:03;3.72;;;3.10;;
32976;SDS011;47687;50.842;4.450;2022-11-15T02:21:58;4.05;;;3.63;;
32976;SDS011;47687;50.842;4.450;2022-11-15T02:25:31;6.93;;;3.50;;
32976;SDS011;47687;50.842;4.450;2022-11-15T02:30:41;6.85;;;3.25;;
32976;SDS011;47687;50.842;4.450;2022-11-15T02:33:28;3.28;;;2.70;;
32976;SDS011;47687;50.842;4.450;2022-11-15T02:36:10;2.17;;;1.73;;
32976;SDS011;47687;50.842;4.450;2022-11-15T02:38:43;5.72;;;2.80;;
32976;SDS011;47687;50.842;4.450;2022-11-15T02:41:15;4.70;;;3.38;;
32976;SDS011;47687;50.842;4.450;2022-11-15T02:43:50;10.43;;;2.58;;
32976;SDS011;47687;50.842;4.450;2022-11-15T02:51:53;4.50;;;3.15;;
32976;SDS011;47687;50.842;4.450;2022-11-15T02:54:21;2.67;;;2.47;;
32976;SDS011;47687;50.842;4.450;2022-11-15T02:56:49;2.58;;;2.38;;
32976;SDS011;47687;50.842;4.450;2022-11-15T03:07:27;3.38;;;3.08;;
32976;SDS011;47687;50.842;4.450;2022-11-15T03:10:13;2.90;;;2.70;;
32976;SDS011;47687;50.842;4.450;2022-11-15T03:15:31;1.90;;;1.80;;
32976;SDS011;47687;50.842;4.450;2022-11-15T03:18:21;2.10;;;1.92;;
32976;SDS011;47687;50.842;4.450;2022-11-15T03:20:57;2.08;;;1.88;;
32976;SDS011;47687;50.842;4.450;2022-11-15T03:23:23;3.28;;;2.08;;
32976;SDS011;47687;50.842;4.450;2022-11-15T03:25:50;5.68;;;2.10;;
32976;SDS011;47687;50.842;4.450;2022-11-15T03:28:20;3.67;;;2.58;;
32976;SDS011;47687;50.842;4.450;2022-11-15T03:30:58;9.00;;;2.28;;
32976;SDS011;47687;50.842;4.450;2022-11-15T03:33:46;3.17;;;2.13;;
32976;SDS011;47687;50.842;4.450;2022-11-15T03:36:14;2.45;;;1.52;;
32976;SDS011;47687;50.842;4.450;2022-11-15T03:38:40;2.30;;;1.80;;
32976;SDS011;47687;50.842;4.450;2022-11-15T03:41:10;7.68;;;2.22;;
32976;SDS011;47687;50.842;4.450;2022-11-15T03:44:05;2.08;;;1.65;;
32976;SDS011;47687;50.842;4.450;2022-11-15T03:46:57;1.48;;;1.33;;
32976;SDS011;47687;50.842;4.450;2022-11-15T03:51:52;3.22;;;1.98;;
32976;SDS011;47687;50.842;4.450;2022-11-15T03:54:18;1.88;;;1.65;;
32976;SDS011;47687;50.842;4.450;2022-11-15T03:56:43;3.50;;;1.67;;
32976;SDS011;47687;50.842;4.450;2022-11-15T03:59:09;1.58;;;1.30;;
32976;SDS011;47687;50.842;4.450;2022-11-15T04:01:34;1.15;;;1.05;;
32976;SDS011;47687;50.842;4.450;2022-11-15T04:04:00;5.05;;;1.85;;
32976;SDS011;47687;50.842;4.450;2022-11-15T04:06:25;3.13;;;2.10;;
32976;SDS011;47687;50.842;4.450;2022-11-15T04:08:51;2.05;;;1.88;;
32976;SDS011;47687;50.842;4.450;2022-11-15T04:11:17;2.10;;;1.90;;
32976;SDS011;47687;50.842;4.450;2022-11-15T04:13:42;1.20;;;1.08;;
32976;SDS011;47687;50.842;4.450;2022-11-15T04:16:08;2.80;;;1.13;;
32976;SDS011;47687;50.842;4.450;2022-11-15T04:18:33;1.45;;;1.20;;
32976;SDS011;47687;50.842;4.450;2022-11-15T04:20:59;1.00;;;0.88;;
32976;SDS011;47687;50.842;4.450;2022-11-15T04:23:43;1.45;;;1.00;;
32976;SDS011;47687;50.842;4.450;2022-11-15T04:26:27;0.85;;;0.80;;
32976;SDS011;47687;50.842;4.450;2022-11-15T04:28:52;1.30;;;1.20;;
32976;SDS011;47687;50.842;4.450;2022-11-15T04:31:36;2.20;;;1.45;;
32976;SDS011;47687;50.842;4.450;2022-11-15T04:34:02;3.03;;;2.13;;
32976;SDS011;47687;50.842;4.450;2022-11-15T04:36:27;2.50;;;1.42;;
32976;SDS011;47687;50.842;4.450;2022-11-15T04:39:11;0.75;;;0.75;;
32976;SDS011;47687;50.842;4.450;2022-11-15T04:41:37;1.80;;;1.63;;
32976;SDS011;47687;50.842;4.450;2022-11-15T04:44:02;2.33;;;1.77;;
32976;SDS011;47687;50.842;4.450;2022-11-15T04:46:28;3.25;;;2.03;;
32976;SDS011;47687;50.842;4.450;2022-11-15T04:48:54;1.52;;;1.35;;
32976;SDS011;47687;50.842;4.450;2022-11-15T04:51:19;2.95;;;1.58;;
32976;SDS011;47687;50.842;4.450;2022-11-15T04:53:45;2.67;;;1.98;;
32976;SDS011;47687;50.842;4.450;2022-11-15T04:56:11;1.55;;;1.25;;
32976;SDS011;47687;50.842;4.450;2022-11-15T04:58:36;2.28;;;1.23;;
32976;SDS011;47687;50.842;4.450;2022-11-15T05:01:12;1.60;;;1.50;;
32976;SDS011;47687;50.842;4.450;2022-11-15T05:03:39;3.08;;;1.63;;
32976;SDS011;47687;50.842;4.450;2022-11-15T05:06:24;1.00;;;1.00;;
32976;SDS011;47687;50.842;4.450;2022-11-15T05:08:50;1.98;;;1.38;;
32976;SDS011;47687;50.842;4.450;2022-11-15T05:11:15;0.90;;;0.90;;
32976;SDS011;47687;50.842;4.450;2022-11-15T05:13:41;1.90;;;1.67;;
32976;SDS011;47687;50.842;4.450;2022-11-15T05:16:07;5.97;;;3.47;;
32976;SDS011;47687;50.842;4.450;2022-11-15T05:18:32;0.30;;;0.30;;
32976;SDS011;47687;50.842;4.450;2022-11-15T05:21:08;3.10;;;0.95;;
32976;SDS011;47687;50.842;4.450;2022-11-15T05:23:36;0.98;;;0.93;;
32976;SDS011;47687;50.842;4.450;2022-11-15T05:26:03;0.32;;;0.32;;
32976;SDS011;47687;50.842;4.450;2022-11-15T05:28:30;7.40;;;1.48;;
32976;SDS011;47687;50.842;4.450;2022-11-15T05:31:03;1.25;;;1.15;;
32976;SDS011;47687;50.842;4.450;2022-11-15T05:33:33;1.35;;;1.13;;
32976;SDS011;47687;50.842;4.450;2022-11-15T05:36:01;1.27;;;1.13;;
32976;SDS011;47687;50.842;4.450;2022-11-15T05:38:28;10.63;;;2.45;;
32976;SDS011;47687;50.842;4.450;2022-11-15T05:40:54;1.65;;;1.40;;
32976;SDS011;47687;50.842;4.450;2022-11-15T05:43:19;1.25;;;1.15;;
32976;SDS011;47687;50.842;4.450;2022-11-15T05:45:45;2.88;;;1.15;;
32976;SDS011;47687;50.842;4.450;2022-11-15T05:48:11;0.73;;;0.73;;
32976;SDS011;47687;50.842;4.450;2022-11-15T05:50:38;0.82;;;0.80;;
32976;SDS011;47687;50.842;4.450;2022-11-15T05:53:08;1.85;;;1.20;;
32976;SDS011;47687;50.842;4.450;2022-11-15T05:55:36;1.15;;;0.73;;
32976;SDS011;47687;50.842;4.450;2022-11-15T05:58:03;1.35;;;1.25;;
32976;SDS011;47687;50.842;4.450;2022-11-15T06:00:29;3.20;;;2.03;;
32976;SDS011;47687;50.842;4.450;2022-11-15T06:02:55;2.22;;;1.58;;
32976;SDS011;47687;50.842;4.450;2022-11-15T06:05:20;0.73;;;0.73;;
32976;SDS011;47687;50.842;4.450;2022-11-15T06:07:46;1.23;;;1.13;;
32976;SDS011;47687;50.842;4.450;2022-11-15T06:10:11;2.63;;;1.80;;
32976;SDS011;47687;50.842;4.450;2022-11-15T06:12:37;2.95;;;1.75;;
32976;SDS011;47687;50.842;4.450;2022-11-15T06:15:02;1.15;;;1.10;;
32976;SDS011;47687;50.842;4.450;2022-11-15T06:17:28;1.05;;;0.95;;
32976;SDS011;47687;50.842;4.450;2022-11-15T06:19:54;2.83;;;1.60;;
32976;SDS011;47687;50.842;4.450;2022-11-15T06:22:19;2.17;;;0.98;;
32976;SDS011;47687;50.842;4.450;2022-11-15T06:24:45;0.30;;;0.30;;
32976;SDS011;47687;50.842;4.450;2022-11-15T06:27:11;0.20;;;0.20;;
32976;SDS011;47687;50.842;4.450;2022-11-15T06:29:37;1.75;;;0.95;;
32976;SDS011;47687;50.842;4.450;2022-11-15T06:32:03;0.98;;;0.90;;
32976;SDS011;47687;50.842;4.450;2022-11-15T06:34:28;4.97;;;2.05;;
32976;SDS011;47687;50.842;4.450;2022-11-15T06:36:54;1.15;;;1.05;;
32976;SDS011;47687;50.842;4.450;2022-11-15T06:39:20;2.75;;;1.58;;
32976;SDS011;47687;50.842;4.450;2022-11-15T06:41:45;2.15;;;1.75;;
32976;SDS011;47687;50.842;4.450;2022-11-15T06:44:11;2.90;;;2.15;;
32976;SDS011;47687;50.842;4.450;2022-11-15T06:46:36;11.45;;;1.02;;
32976;SDS011;47687;50.842;4.450;2022-11-15T06:49:02;2.55;;;1.75;;
32976;SDS011;47687;50.842;4.450;2022-11-15T06:51:27;5.05;;;1.58;;
32976;SDS011;47687;50.842;4.450;2022-11-15T06:53:53;1.73;;;1.52;;
32976;SDS011;47687;50.842;4.450;2022-11-15T06:56:19;0.35;;;0.35;;
32976;SDS011;47687;50.842;4.450;2022-11-15T06:58:44;0.40;;;0.40;;
32976;SDS011;47687;50.842;4.450;2022-11-15T07:01:11;1.45;;;1.23;;
32976;SDS011;47687;50.842;4.450;2022-11-15T07:03:38;0.70;;;0.70;;
32976;SDS011;47687;50.842;4.450;2022-11-15T07:06:05;0.77;;;0.77;;
32976;SDS011;47687;50.842;4.450;2022-11-15T07:08:32;1.65;;;0.95;;
32976;SDS011;47687;50.842;4.450;2022-11-15T07:10:58;0.20;;;0.20;;
32976;SDS011;47687;50.842;4.450;2022-11-15T07:13:25;0.85;;;0.70;;
32976;SDS011;47687;50.842;4.450;2022-11-15T07:15:51;1.10;;;1.00;;
32976;SDS011;47687;50.842;4.450;2022-11-15T07:18:17;0.35;;;0.35;;
32976;SDS011;47687;50.842;4.450;2022-11-15T07:20:43;0.28;;;0.28;;
32976;SDS011;47687;50.842;4.450;2022-11-15T07:23:09;6.82;;;2.35;;
32976;SDS011;47687;50.842;4.450;2022-11-15T07:25:34;2.65;;;1.38;;
32976;SDS011;47687;50.842;4.450;2022-11-15T07:28:00;0.30;;;0.30;;
32976;SDS011;47687;50.842;4.450;2022-11-15T07:30:26;2.35;;;1.42;;
32976;SDS011;47687;50.842;4.450;2022-11-15T07:32:55;2.65;;;2.10;;
32976;SDS011;47687;50.842;4.450;2022-11-15T07:35:23;1.80;;;1.42;;
32976;SDS011;47687;50.842;4.450;2022-11-15T07:37:55;6.65;;;2.58;;
32976;SDS011;47687;50.842;4.450;2022-11-15T07:40:26;0.32;;;0.32;;
32976;SDS011;47687;50.842;4.450;2022-11-15T07:42:58;0.60;;;0.60;;
32976;SDS011;47687;50.842;4.450;2022-11-15T07:45:28;0.20;;;0.20;;
32976;SDS011;47687;50.842;4.450;2022-11-15T07:47:54;0.30;;;0.30;;
32976;SDS011;47687;50.842;4.450;2022-11-15T07:50:21;3.72;;;2.28;;
32976;SDS011;47687;50.842;4.450;2022-11-15T07:52:50;1.35;;;0.82;;
32976;SDS011;47687;50.842;4.450;2022-11-15T07:55:19;5.40;;;3.05;;
32976;SDS011;47687;50.842;4.450;2022-11-15T07:57:44;0.98;;;0.88;;
32976;SDS011;47687;50.842;4.450;2022-11-15T08:00:10;2.55;;;1.30;;
32976;SDS011;47687;50.842;4.450;2022-11-15T08:02:36;0.20;;;0.20;;
32976;SDS011;47687;50.842;4.450;2022-11-15T08:05:01;0.30;;;0.30;;
32976;SDS011;47687;50.842;4.450;2022-11-15T08:07:28;1.00;;;0.93;;
32976;SDS011;47687;50.842;4.450;2022-11-15T08:09:55;0.95;;;0.90;;
32976;SDS011;47687;50.842;4.450;2022-11-15T08:12:21;2.15;;;1.48;;
32976;SDS011;47687;50.842;4.450;2022-11-15T08:14:47;0.50;;;0.50;;
32976;SDS011;47687;50.842;4.450;2022-11-15T08:17:13;1.48;;;0.82;;
32976;SDS011;47687;50.842;4.450;2022-11-15T08:19:38;2.38;;;1.40;;
32976;SDS011;47687;50.842;4.450;2022-11-15T08:22:04;1.23;;;1.13;;
32976;SDS011;47687;50.842;4.450;2022-11-15T08:24:29;0.60;;;0.60;;
32976;SDS011;47687;50.842;4.450;2022-11-15T08:26:55;2.50;;;1.77;;
32976;SDS011;47687;50.842;4.450;2022-11-15T08:29:21;1.55;;;1.10;;
32976;SDS011;47687;50.842;4.450;2022-11-15T08:31:46;4.22;;;2.15;;
32976;SDS011;47687;50.842;4.450;2022-11-15T08:34:12;0.20;;;0.20;;
32976;SDS011;47687;50.842;4.450;2022-11-15T08:36:37;1.48;;;1.02;;
32976;SDS011;47687;50.842;4.450;2022-11-15T08:39:03;0.55;;;0.52;;
32976;SDS011;47687;50.842;4.450;2022-11-15T08:41:30;0.30;;;0.30;;
32976;SDS011;47687;50.842;4.450;2022-11-15T08:43:57;1.45;;;1.08;;
32976;SDS011;47687;50.842;4.450;2022-11-15T08:46:23;2.05;;;1.20;;
32976;SDS011;47687;50.842;4.450;2022-11-15T08:48:48;1.30;;;1.20;;
32976;SDS011;47687;50.842;4.450;2022-11-15T08:51:14;0.95;;;0.90;;
32976;SDS011;47687;50.842;4.450;2022-11-15T08:53:40;0.20;;;0.20;;
32976;SDS011;47687;50.842;4.450;2022-11-15T08:56:07;1.20;;;1.00;;
32976;SDS011;47687;50.842;4.450;2022-11-15T08:58:34;0.30;;;0.30;;
32976;SDS011;47687;50.842;4.450;2022-11-15T09:01:00;0.85;;;0.73;;
32976;SDS011;47687;50.842;4.450;2022-11-15T09:03:25;0.70;;;0.70;;
32976;SDS011;47687;50.842;4.450;2022-11-15T09:05:55;1.35;;;1.25;;
32976;SDS011;47687;50.842;4.450;2022-11-15T09:08:21;1.52;;;0.85;;
32976;SDS011;47687;50.842;4.450;2022-11-15T09:10:47;0.68;;;0.68;;
32976;SDS011;47687;50.842;4.450;2022-11-15T09:13:13;0.65;;;0.57;;
32976;SDS011;47687;50.842;4.450;2022-11-15T09:15:38;0.40;;;0.40;;
32976;SDS011;47687;50.842;4.450;2022-11-15T09:18:04;0.70;;;0.70;;
32976;SDS011;47687;50.842;4.450;2022-11-15T09:20:30;1.75;;;1.15;;
32976;SDS011;47687;50.842;4.450;2022-11-15T09:22:59;0.60;;;0.47;;
32976;SDS011;47687;50.842;4.450;2022-11-15T09:25:29;1.20;;;0.85;;
32976;SDS011;47687;50.842;4.450;2022-11-15T09:27:55;3.50;;;1.38;;
32976;SDS011;47687;50.842;4.450;2022-11-15T09:30:21;0.40;;;0.40;;
32976;SDS011;47687;50.842;4.450;2022-11-15T09:32:47;1.08;;;0.88;;
32976;SDS011;47687;50.842;4.450;2022-11-15T09:35:13;2.38;;;1.30;;
32976;SDS011;47687;50.842;4.450;2022-11-15T09:37:39;2.25;;;1.20;;
32976;SDS011;47687;50.842;4.450;2022-11-15T09:40:04;6.53;;;1.52;;
32976;SDS011;47687;50.842;4.450;2022-11-15T09:47:44;0.82;;;0.52;;
32976;SDS011;47687;50.842;4.450;2022-11-15T09:50:49;0.30;;;0.30;;
32976;SDS011;47687;50.842;4.450;2022-11-15T09:53:34;0.98;;;0.75;;
32976;SDS011;47687;50.842;4.450;2022-11-15T09:56:22;3.25;;;1.20;;
32976;SDS011;47687;50.842;4.450;2022-11-15T10:04:36;3.88;;;1.80;;
32976;SDS011;47687;50.842;4.450;2022-11-15T10:07:13;0.73;;;0.68;;
32976;SDS011;47687;50.842;4.450;2022-11-15T10:10:02;3.35;;;1.38;;
32976;SDS011;47687;50.842;4.450;2022-11-15T10:12:50;1.42;;;1.05;;
32976;SDS011;47687;50.842;4.450;2022-11-15T10:15:18;0.80;;;0.80;;
32976;SDS011;47687;50.842;4.450;2022-11-15T10:20:23;0.68;;;0.68;;
32976;SDS011;47687;50.842;4.450;2022-11-15T10:22:52;1.45;;;1.05;;
32976;SDS011;47687;50.842;4.450;2022-11-15T10:28:15;3.53;;;1.00;;
32976;SDS011;47687;50.842;4.450;2022-11-15T10:30:42;0.63;;;0.43;;
32976;SDS011;47687;50.842;4.450;2022-11-15T10:33:31;10.38;;;0.75;;
32976;SDS011;47687;50.842;4.450;2022-11-15T10:38:49;6.25;;;1.80;;
32976;SDS011;47687;50.842;4.450;2022-11-15T10:49:28;0.63;;;0.60;;
32976;SDS011;47687;50.842;4.450;2022-11-15T10:54:30;0.57;;;0.55;;
32976;SDS011;47687;50.842;4.450;2022-11-15T10:57:48;0.30;;;0.30;;
32976;SDS011;47687;50.842;4.450;2022-11-15T11:00:03;0.65;;;0.65;;
32976;SDS011;47687;50.842;4.450;2022-11-15T11:08:01;1.27;;;1.00;;
32976;SDS011;47687;50.842;4.450;2022-11-15T11:10:29;1.42;;;0.85;;
32976;SDS011;47687;50.842;4.450;2022-11-15T11:12:55;0.32;;;0.32;;
32976;SDS011;47687;50.842;4.450;2022-11-15T11:15:21;0.35;;;0.35;;
32976;SDS011;47687;50.842;4.450;2022-11-15T11:23:15;0.52;;;0.52;;
32976;SDS011;47687;50.842;4.450;2022-11-15T11:26:05;0.22;;;0.22;;
32976;SDS011;47687;50.842;4.450;2022-11-15T11:31:41;1.42;;;0.82;;
32976;SDS011;47687;50.842;4.450;2022-11-15T11:37:12;1.38;;;1.10;;
32976;SDS011;47687;50.842;4.450;2022-11-15T11:50:45;4.68;;;1.80;;
32976;SDS011;47687;50.842;4.450;2022-11-15T11:53:15;2.47;;;1.23;;
32976;SDS011;47687;50.842;4.450;2022-11-15T11:55:58;1.00;;;0.68;;
32976;SDS011;47687;50.842;4.450;2022-11-15T11:58:39;0.20;;;0.20;;
32976;SDS011;47687;50.842;4.450;2022-11-15T12:01:14;1.60;;;0.85;;
32976;SDS011;47687;50.842;4.450;2022-11-15T12:06:45;6.95;;;1.52;;
32976;SDS011;47687;50.842;4.450;2022-11-15T12:09:32;0.75;;;0.70;;
32976;SDS011;47687;50.842;4.450;2022-11-15T12:17:39;0.45;;;0.45;;
32976;SDS011;47687;50.842;4.450;2022-11-15T12:22:55;0.85;;;0.85;;
32976;SDS011;47687;50.842;4.450;2022-11-15T12:28:38;1.27;;;0.93;;
32976;SDS011;47687;50.842;4.450;2022-11-15T12:33:46;0.30;;;0.30;;
32976;SDS011;47687;50.842;4.450;2022-11-15T13:02:20;7.00;;;0.77;;
32976;SDS011;47687;50.842;4.450;2022-11-15T13:04:47;0.50;;;0.50;;
32976;SDS011;47687;50.842;4.450;2022-11-15T13:10:00;2.50;;;0.77;;
32976;SDS011;47687;50.842;4.450;2022-11-15T13:17:38;0.55;;;0.55;;
32976;SDS011;47687;50.842;4.450;2022-11-15T13:22:46;0.32;;;0.32;;
32976;SDS011;47687;50.842;4.450;2022-11-15T13:28:02;0.32;;;0.32;;
32976;SDS011;47687;50.842;4.450;2022-11-15T13:30:35;0.38;;;0.38;;
32976;SDS011;47687;50.842;4.450;2022-11-15T13:33:08;0.88;;;0.70;;
32976;SDS011;47687;50.842;4.450;2022-11-15T13:35:40;3.10;;;0.80;;
32976;SDS011;47687;50.842;4.450;2022-11-15T13:38:11;0.43;;;0.43;;
32976;SDS011;47687;50.842;4.450;2022-11-15T13:40:53;0.32;;;0.32;;
32976;SDS011;47687;50.842;4.450;2022-11-15T13:48:37;0.77;;;0.77;;
32976;SDS011;47687;50.842;4.450;2022-11-15T13:51:04;0.47;;;0.47;;
32976;SDS011;47687;50.842;4.450;2022-11-15T13:53:39;0.65;;;0.65;;
32976;SDS011;47687;50.842;4.450;2022-11-15T13:56:07;0.30;;;0.30;;
32976;SDS011;47687;50.842;4.450;2022-11-15T13:58:33;0.50;;;0.50;;
32976;SDS011;47687;50.842;4.450;2022-11-15T14:01:04;0.40;;;0.40;;
32976;SDS011;47687;50.842;4.450;2022-11-15T14:03:34;0.30;;;0.28;;
32976;SDS011;47687;50.842;4.450;2022-11-15T14:06:12;0.70;;;0.60;;
32976;SDS011;47687;50.842;4.450;2022-11-15T14:08:40;0.30;;;0.30;;
32976;SDS011;47687;50.842;4.450;2022-11-15T14:11:21;0.30;;;0.30;;
32976;SDS011;47687;50.842;4.450;2022-11-15T14:16:38;0.98;;;0.70;;
32976;SDS011;47687;50.842;4.450;2022-11-15T14:24:38;1.25;;;0.77;;
32976;SDS011;47687;50.842;4.450;2022-11-15T14:29:47;1.45;;;0.82;;
32976;SDS011;47687;50.842;4.450;2022-11-15T14:32:20;0.32;;;0.32;;
32976;SDS011;47687;50.842;4.450;2022-11-15T14:34:49;0.40;;;0.40;;
32976;SDS011;47687;50.842;4.450;2022-11-15T14:37:23;0.43;;;0.43;;
32976;SDS011;47687;50.842;4.450;2022-11-15T14:39:58;0.82;;;0.82;;
32976;SDS011;47687;50.842;4.450;2022-11-15T14:42:24;1.00;;;0.80;;
32976;SDS011;47687;50.842;4.450;2022-11-15T14:44:50;0.63;;;0.63;;
32976;SDS011;47687;50.842;4.450;2022-11-15T14:47:17;1.17;;;0.35;;
32976;SDS011;47687;50.842;4.450;2022-11-15T14:49:42;0.40;;;0.40;;
32976;SDS011;47687;50.842;4.450;2022-11-15T14:52:23;1.05;;;0.68;;
32976;SDS011;47687;50.842;4.450;2022-11-15T14:54:53;0.50;;;0.50;;
32976;SDS011;47687;50.842;4.450;2022-11-15T14:57:20;1.58;;;0.88;;
32976;SDS011;47687;50.842;4.450;2022-11-15T14:59:46;0.60;;;0.60;;
32976;SDS011;47687;50.842;4.450;2022-11-15T15:02:16;0.80;;;0.63;;
32976;SDS011;47687;50.842;4.450;2022-11-15T15:04:47;0.63;;;0.32;;
32976;SDS011;47687;50.842;4.450;2022-11-15T15:07:13;0.55;;;0.55;;
32976;SDS011;47687;50.842;4.450;2022-11-15T15:09:38;0.88;;;0.63;;
32976;SDS011;47687;50.842;4.450;2022-11-15T15:12:05;0.30;;;0.30;;
32976;SDS011;47687;50.842;4.450;2022-11-15T15:14:40;3.00;;;1.42;;
32976;SDS011;47687;50.842;4.450;2022-11-15T15:17:06;0.55;;;0.55;;
32976;SDS011;47687;50.842;4.450;2022-11-15T15:19:31;1.48;;;0.85;;
32976;SDS011;47687;50.842;4.450;2022-11-15T15:21:57;0.47;;;0.47;;
32976;SDS011;47687;50.842;4.450;2022-11-15T15:24:22;0.38;;;0.38;;
32976;SDS011;47687;50.842;4.450;2022-11-15T15:26:48;0.60;;;0.60;;
32976;SDS011;47687;50.842;4.450;2022-11-15T15:29:13;0.38;;;0.38;;
32976;SDS011;47687;50.842;4.450;2022-11-15T15:31:39;1.45;;;1.35;;
32976;SDS011;47687;50.842;4.450;2022-11-15T15:34:05;1.63;;;1.35;;
32976;SDS011;47687;50.842;4.450;2022-11-15T15:36:30;0.95;;;0.95;;
32976;SDS011;47687;50.842;4.450;2022-11-15T15:38:56;0.60;;;0.60;;
32976;SDS011;47687;50.842;4.450;2022-11-15T15:41:22;1.58;;;0.93;;
32976;SDS011;47687;50.842;4.450;2022-11-15T15:43:48;1.40;;;0.80;;
32976;SDS011;47687;50.842;4.450;2022-11-15T15:46:14;0.35;;;0.35;;
32976;SDS011;47687;50.842;4.450;2022-11-15T15:48:41;0.95;;;0.63;;
32976;SDS011;47687;50.842;4.450;2022-11-15T15:51:07;0.88;;;0.70;;
32976;SDS011;47687;50.842;4.450;2022-11-15T15:53:33;0.73;;;0.47;;
32976;SDS011;47687;50.842;4.450;2022-11-15T15:55:59;0.85;;;0.85;;
32976;SDS011;47687;50.842;4.450;2022-11-15T15:58:25;0.77;;;0.63;;
32976;SDS011;47687;50.842;4.450;2022-11-15T16:00:50;0.60;;;0.60;;
32976;SDS011;47687;50.842;4.450;2022-11-15T16:03:16;0.60;;;0.60;;
32976;SDS011;47687;50.842;4.450;2022-11-15T16:05:42;0.40;;;0.40;;
32976;SDS011;47687;50.842;4.450;2022-11-15T16:08:18;1.35;;;0.95;;
32976;SDS011;47687;50.842;4.450;2022-11-15T16:10:45;2.72;;;1.38;;
32976;SDS011;47687;50.842;4.450;2022-11-15T16:13:11;0.90;;;0.90;;
32976;SDS011;47687;50.842;4.450;2022-11-15T16:15:36;0.50;;;0.50;;
32976;SDS011;47687;50.842;4.450;2022-11-15T16:18:03;0.30;;;0.30;;
32976;SDS011;47687;50.842;4.450;2022-11-15T16:20:34;0.40;;;0.40;;
32976;SDS011;47687;50.842;4.450;2022-11-15T16:23:00;3.45;;;0.95;;
32976;SDS011;47687;50.842;4.450;2022-11-15T16:25:27;0.52;;;0.50;;
32976;SDS011;47687;50.842;4.450;2022-11-15T16:27:52;0.55;;;0.55;;
32976;SDS011;47687;50.842;4.450;2022-11-15T16:30:19;1.95;;;0.95;;
32976;SDS011;47687;50.842;4.450;2022-11-15T16:32:47;0.60;;;0.60;;
32976;SDS011;47687;50.842;4.450;2022-11-15T16:35:13;1.38;;;1.08;;
32976;SDS011;47687;50.842;4.450;2022-11-15T16:37:40;0.82;;;0.63;;
32976;SDS011;47687;50.842;4.450;2022-11-15T16:42:55;0.30;;;0.30;;
32976;SDS011;47687;50.842;4.450;2022-11-15T16:45:26;0.77;;;0.77;;
32976;SDS011;47687;50.842;4.450;2022-11-15T16:47:53;0.95;;;0.80;;
32976;SDS011;47687;50.842;4.450;2022-11-15T16:50:24;0.60;;;0.60;;
32976;SDS011;47687;50.842;4.450;2022-11-15T16:52:55;0.50;;;0.50;;
32976;SDS011;47687;50.842;4.450;2022-11-15T16:55:23;1.33;;;0.85;;
32976;SDS011;47687;50.842;4.450;2022-11-15T16:57:51;1.00;;;0.65;;
32976;SDS011;47687;50.842;4.450;2022-11-15T17:00:18;0.80;;;0.80;;
32976;SDS011;47687;50.842;4.450;2022-11-15T17:02:45;0.63;;;0.63;;
32976;SDS011;47687;50.842;4.450;2022-11-15T17:05:12;0.40;;;0.40;;
32976;SDS011;47687;50.842;4.450;2022-11-15T17:07:38;1.02;;;0.93;;
32976;SDS011;47687;50.842;4.450;2022-11-15T17:10:04;0.68;;;0.50;;
32976;SDS011;47687;50.842;4.450;2022-11-15T17:12:32;0.50;;;0.50;;
32976;SDS011;47687;50.842;4.450;2022-11-15T17:14:58;0.30;;;0.30;;
32976;SDS011;47687;50.842;4.450;2022-11-15T17:17:24;0.65;;;0.65;;
32976;SDS011;47687;50.842;4.450;2022-11-15T17:19:50;2.08;;;0.82;;
32976;SDS011;47687;50.842;4.450;2022-11-15T17:22:17;1.48;;;0.88;;
32976;SDS011;47687;50.842;4.450;2022-11-15T17:24:42;1.20;;;0.95;;
32976;SDS011;47687;50.842;4.450;2022-11-15T17:27:08;0.57;;;0.57;;
32976;SDS011;47687;50.842;4.450;2022-11-15T17:29:33;0.30;;;0.30;;
32976;SDS011;47687;50.842;4.450;2022-11-15T17:31:59;0.55;;;0.55;;
32976;SDS011;47687;50.842;4.450;2022-11-15T17:34:25;1.23;;;1.02;;
32976;SDS011;47687;50.842;4.450;2022-11-15T17:36:50;2.08;;;1.63;;
32976;SDS011;47687;50.842;4.450;2022-11-15T17:39:16;0.93;;;0.57;;
32976;SDS011;47687;50.842;4.450;2022-11-15T17:41:43;0.30;;;0.30;;